createdAt,value
2022-10-05T00:01:57.945Z,14.45
2022-10-05T00:06:59.879Z,14.18
2022-10-05T00:12:01.631Z,14.48
2022-10-05T00:17:03.413Z,13.73
2022-10-05T00:22:05.123Z,13.63
2022-10-05T00:27:06.867Z,12.32
2022-10-05T00:32:08.457Z,14.10
2022-10-05T00:37:10.129Z,14.00
2022-10-05T00:42:11.837Z,13.90
2022-10-05T00:47:13.565Z,13.57
2022-10-05T00:52:15.330Z,13.75
2022-10-05T00:57:17.080Z,13.88
2022-10-05T01:02:18.958Z,14.07
2022-10-05T01:07:20.652Z,13.50
2022-10-05T01:12:22.338Z,12.88
2022-10-05T01:17:24.087Z,11.82
2022-10-05T01:22:25.784Z,11.90
2022-10-05T01:27:27.637Z,13.13
2022-10-05T01:32:29.350Z,13.02
2022-10-05T01:37:31.101Z,12.93
2022-10-05T01:42:32.852Z,12.18
2022-10-05T01:47:34.629Z,10.98
2022-10-05T01:52:36.381Z,11.40
2022-10-05T01:57:37.933Z,11.05
2022-10-05T02:02:39.688Z,11.07
2022-10-05T02:07:41.339Z,11.30
2022-10-05T02:12:43.084Z,12.02
2022-10-05T02:17:44.820Z,11.65
2022-10-05T02:22:46.586Z,11.35
2022-10-05T02:27:48.341Z,10.55
2022-10-05T02:32:50.085Z,13.25
2022-10-05T02:37:51.876Z,11.75
2022-10-05T02:42:53.589Z,10.90
2022-10-05T02:47:55.398Z,10.98
2022-10-05T02:52:57.117Z,11.40
2022-10-05T02:57:58.645Z,10.60
2022-10-05T03:03:00.300Z,10.13
2022-10-05T03:08:01.850Z,10.70
2022-10-05T03:13:03.512Z,10.18
2022-10-05T03:18:05.239Z,9.57
2022-10-05T03:23:06.942Z,9.20
2022-10-05T03:28:08.834Z,9.73
2022-10-05T03:33:10.510Z,9.68
2022-10-05T03:38:12.262Z,10.00
2022-10-05T03:43:14.004Z,8.55
2022-10-05T03:48:15.761Z,9.38
2022-10-05T03:53:17.553Z,9.68
2022-10-05T03:58:19.063Z,9.57
2022-10-05T04:08:48.016Z,10.85
2022-10-05T04:13:49.921Z,11.25
2022-10-05T04:18:51.702Z,8.57
2022-10-05T04:23:53.431Z,10.05
2022-10-05T04:28:54.979Z,9.57
2022-10-05T04:33:56.515Z,9.35
2022-10-05T04:38:58.117Z,8.68
2022-10-05T04:43:59.826Z,8.40
2022-10-05T04:49:01.596Z,8.05
2022-10-05T04:54:03.326Z,9.15
2022-10-05T04:59:05.098Z,10.80
2022-10-05T05:04:06.903Z,9.50
2022-10-05T05:09:08.474Z,9.18
2022-10-05T05:14:10.057Z,9.93
2022-10-05T05:19:11.813Z,9.07
2022-10-05T05:24:13.546Z,9.27
2022-10-05T05:29:15.299Z,10.10
2022-10-05T05:34:17.058Z,9.10
2022-10-05T05:39:18.823Z,8.60
2022-10-05T05:44:20.588Z,9.20
2022-10-05T05:49:22.308Z,10.57
2022-10-05T05:54:24.078Z,9.95
2022-10-05T05:59:25.609Z,12.27
2022-10-05T06:04:27.286Z,12.75
2022-10-05T06:09:28.815Z,14.95
2022-10-05T06:14:30.477Z,14.60
2022-10-05T06:24:50.594Z,12.07
2022-10-05T06:30:00.399Z,9.82
2022-10-05T06:35:09.709Z,8.30
2022-10-05T06:40:12.130Z,8.45
2022-10-05T06:45:13.696Z,8.65
2022-10-05T06:50:15.339Z,8.95
2022-10-05T06:55:16.894Z,8.45
2022-10-05T07:00:18.529Z,7.90
2022-10-05T07:05:20.299Z,6.78
2022-10-05T07:10:22.064Z,6.97
2022-10-05T07:15:23.620Z,7.05
2022-10-05T07:20:25.268Z,6.38
2022-10-05T07:25:26.871Z,6.72
2022-10-05T07:30:28.434Z,6.50
2022-10-05T07:35:30.005Z,6.97
2022-10-05T07:40:31.575Z,6.88
2022-10-05T07:45:34.254Z,6.82
2022-10-05T07:50:35.849Z,6.40
2022-10-05T07:55:37.364Z,6.63
2022-10-05T08:00:38.902Z,5.70
2022-10-05T08:05:40.473Z,5.00
2022-10-05T08:10:41.972Z,4.40
2022-10-05T08:15:43.551Z,4.43
2022-10-05T08:20:45.113Z,3.80
2022-10-05T08:25:46.642Z,3.22
2022-10-05T08:30:48.203Z,2.35
2022-10-05T08:35:50.066Z,2.35
2022-10-05T08:40:51.601Z,2.10
2022-10-05T08:45:53.168Z,2.08
2022-10-05T08:50:55.069Z,1.92
2022-10-05T08:55:56.614Z,2.03
2022-10-05T09:00:58.168Z,1.70
2022-10-05T09:05:59.695Z,1.63
2022-10-05T09:11:01.231Z,1.77
2022-10-05T09:16:02.852Z,1.63
2022-10-05T09:21:04.411Z,1.50
2022-10-05T09:26:05.924Z,1.60
2022-10-05T09:31:07.500Z,1.58
2022-10-05T09:36:09.215Z,1.45
2022-10-05T09:41:10.759Z,1.40
2022-10-05T09:46:12.356Z,1.80
2022-10-05T09:51:13.975Z,1.75
2022-10-05T09:56:15.573Z,1.60
2022-10-05T10:01:32.629Z,1.58
2022-10-05T10:06:35.223Z,1.50
2022-10-05T10:11:36.775Z,1.80
2022-10-05T10:16:38.290Z,1.67
2022-10-05T10:21:39.831Z,1.48
2022-10-05T10:26:41.576Z,1.75
2022-10-05T10:31:43.104Z,1.45
2022-10-05T10:36:44.618Z,1.30
2022-10-05T10:41:46.160Z,1.55
2022-10-05T10:46:47.968Z,1.52
2022-10-05T10:51:49.828Z,1.50
2022-10-05T10:56:51.731Z,1.42
2022-10-05T11:01:53.558Z,1.50
2022-10-05T11:06:55.284Z,1.60
2022-10-05T11:11:56.815Z,1.60
2022-10-05T11:16:58.355Z,1.50
2022-10-05T11:22:00.002Z,1.50
2022-10-05T11:27:01.535Z,1.55
2022-10-05T11:32:03.064Z,1.60
2022-10-05T11:37:04.578Z,1.58
2022-10-05T11:42:06.128Z,1.50
2022-10-05T11:47:07.662Z,1.48
2022-10-05T11:52:09.184Z,1.77
2022-10-05T11:57:10.701Z,1.60
2022-10-05T12:02:12.256Z,1.45
2022-10-05T12:07:13.936Z,1.70
2022-10-05T12:12:15.489Z,1.52
2022-10-05T12:17:17.019Z,1.55
2022-10-05T12:22:18.588Z,1.63
2022-10-05T12:27:20.123Z,1.50
2022-10-05T12:32:21.656Z,1.40
2022-10-05T12:37:23.194Z,1.67
2022-10-05T12:42:24.937Z,1.35
2022-10-05T12:47:26.484Z,1.70
2022-10-05T12:52:28.008Z,1.40
2022-10-05T12:57:29.540Z,1.30
2022-10-05T13:02:31.106Z,1.60
2022-10-05T13:07:32.769Z,1.42
2022-10-05T13:12:34.334Z,1.50
2022-10-05T13:17:36.910Z,1.42
2022-10-05T13:22:38.519Z,1.80
2022-10-05T13:27:42.092Z,1.40
2022-10-05T13:32:43.630Z,1.00
2022-10-05T13:37:45.157Z,0.80
2022-10-05T13:42:46.683Z,1.00
2022-10-05T13:47:48.206Z,1.00
2022-10-05T13:52:49.876Z,0.90
2022-10-05T13:57:51.400Z,1.10
2022-10-05T14:02:52.936Z,1.38
2022-10-05T14:07:54.695Z,1.10
2022-10-05T14:12:56.588Z,1.00
2022-10-05T14:17:58.130Z,0.98
2022-10-05T14:22:59.696Z,1.00
2022-10-05T14:28:01.512Z,1.20
2022-10-05T14:33:03.121Z,1.20
2022-10-05T14:38:04.724Z,1.00
2022-10-05T14:43:06.328Z,1.10
2022-10-05T14:48:07.873Z,1.10
2022-10-05T14:53:09.394Z,1.00
2022-10-05T14:58:11.253Z,1.13
2022-10-05T15:03:12.843Z,1.20
2022-10-05T15:08:14.379Z,1.20
2022-10-05T15:13:15.944Z,1.20
2022-10-05T15:18:17.494Z,1.25
2022-10-05T15:23:19.081Z,1.40
2022-10-05T15:28:20.687Z,1.48
2022-10-05T15:33:22.263Z,2.00
2022-10-05T15:38:25.632Z,2.58
2022-10-05T15:43:27.475Z,2.25
2022-10-05T15:48:29.069Z,2.30
2022-10-05T15:53:30.663Z,2.50
2022-10-05T15:58:32.212Z,2.45
2022-10-05T16:03:34.282Z,2.85
2022-10-05T16:08:35.820Z,2.78
2022-10-05T16:13:37.353Z,2.65
2022-10-05T16:18:38.890Z,2.78
2022-10-05T16:23:40.425Z,2.67
2022-10-05T16:28:41.977Z,3.30
2022-10-05T16:33:46.875Z,3.60
2022-10-05T16:38:48.664Z,3.60
2022-10-05T16:43:50.190Z,3.70
2022-10-05T16:48:51.714Z,3.40
2022-10-05T16:53:53.236Z,3.72
2022-10-05T16:58:54.763Z,4.00
2022-10-05T17:03:56.319Z,3.83
2022-10-05T17:08:57.849Z,4.00
2022-10-05T17:13:59.366Z,4.32
2022-10-05T17:19:00.920Z,4.60
2022-10-05T17:24:02.480Z,4.80
2022-10-05T17:29:03.993Z,4.35
2022-10-05T17:34:05.521Z,5.00
2022-10-05T17:39:07.056Z,4.93
2022-10-05T17:44:08.599Z,4.53
2022-10-05T17:49:10.096Z,5.10
2022-10-05T17:54:11.635Z,5.10
2022-10-05T17:59:13.226Z,5.72
2022-10-05T18:04:14.756Z,5.63
2022-10-05T18:09:16.295Z,6.00
2022-10-05T18:14:17.852Z,6.32
2022-10-05T18:19:19.414Z,6.65
2022-10-05T18:24:20.967Z,6.32
2022-10-05T18:29:22.515Z,6.38
2022-10-05T18:34:24.052Z,5.93
2022-10-05T18:39:25.654Z,6.00
2022-10-05T18:44:27.199Z,5.88
2022-10-05T18:49:28.739Z,5.63
2022-10-05T18:54:30.261Z,5.93
2022-10-05T18:59:31.787Z,5.78
2022-10-05T19:04:33.364Z,5.75
2022-10-05T19:09:34.899Z,6.20
2022-10-05T19:14:36.456Z,5.63
2022-10-05T19:19:37.994Z,5.60
2022-10-05T19:24:39.537Z,6.05
2022-10-05T19:29:41.093Z,5.65
2022-10-05T19:34:42.641Z,6.47
2022-10-05T19:39:44.170Z,6.85
2022-10-05T19:44:45.721Z,6.53
2022-10-05T19:49:47.277Z,7.13
2022-10-05T19:54:48.809Z,6.95
2022-10-05T19:59:50.559Z,6.43
2022-10-05T20:04:52.094Z,6.30
2022-10-05T20:09:53.649Z,6.78
2022-10-05T20:14:59.161Z,6.22
2022-10-05T20:20:01.032Z,5.03
2022-10-05T20:25:02.584Z,5.85
2022-10-05T20:30:04.123Z,5.90
2022-10-05T20:35:05.681Z,5.82
2022-10-05T20:40:07.218Z,6.18
2022-10-05T20:45:08.750Z,6.22
2022-10-05T20:50:10.277Z,6.20
2022-10-05T20:55:11.911Z,6.72
2022-10-05T21:00:13.454Z,6.40
2022-10-05T21:05:15.062Z,6.70
2022-10-05T21:10:16.713Z,6.15
2022-10-05T21:15:18.377Z,7.18
2022-10-05T21:20:19.910Z,7.35
2022-10-05T21:25:21.450Z,6.65
2022-10-05T21:30:22.969Z,6.82
2022-10-05T21:35:24.517Z,6.35
2022-10-05T21:40:26.050Z,6.35
2022-10-05T21:45:27.621Z,6.18
2022-10-05T21:50:29.204Z,4.90
2022-10-05T21:55:30.715Z,4.97
2022-10-05T22:00:32.265Z,4.50
2022-10-05T22:05:33.879Z,4.60
2022-10-05T22:10:35.432Z,4.65
2022-10-05T22:15:36.959Z,4.38
2022-10-05T22:20:38.490Z,4.65
2022-10-05T22:25:40.039Z,4.40
2022-10-05T22:30:41.571Z,4.90
2022-10-05T22:35:43.098Z,4.85
2022-10-05T22:40:44.614Z,4.90
2022-10-05T22:45:46.227Z,4.25
2022-10-05T22:50:47.790Z,4.20
2022-10-05T22:55:49.351Z,4.03
2022-10-05T23:00:58.312Z,4.05
2022-10-05T23:06:00.366Z,4.35
2022-10-05T23:11:01.900Z,4.30
2022-10-05T23:16:03.436Z,4.60
2022-10-05T23:21:04.958Z,4.43
2022-10-05T23:26:06.558Z,4.20
2022-10-05T23:31:08.239Z,4.47
2022-10-05T23:36:09.856Z,4.22
2022-10-05T23:41:11.396Z,4.93
2022-10-05T23:46:13.030Z,4.57
2022-10-05T23:51:14.566Z,5.18
2022-10-05T23:56:16.111Z,4.50
